sensor_id;sensor_type;location;lat;lon;timestamp;temperature;humidity
5278;DHT22;2662;51.194;6.614;2023-02-12T00:00:42;10.20;99.90
5278;DHT22;2662;51.194;6.614;2023-02-12T00:03:09;10.20;99.90
5278;DHT22;2662;51.194;6.614;2023-02-12T00:05:37;10.10;99.90
5278;DHT22;2662;51.194;6.614;2023-02-12T00:08:04;10.10;99.90
5278;DHT22;2662;51.194;6.614;2023-02-12T00:10:32;10.10;99.90
5278;DHT22;2662;51.194;6.614;2023-02-12T00:12:59;10.10;99.90
5278;DHT22;2662;51.194;6.614;2023-02-12T00:15:26;10.10;99.90
5278;DHT22;2662;51.194;6.614;2023-02-12T00:17:53;10.20;99.90
5278;DHT22;2662;51.194;6.614;2023-02-12T00:20:19;10.20;99.90
5278;DHT22;2662;51.194;6.614;2023-02-12T00:22:46;10.20;99.90
5278;DHT22;2662;51.194;6.614;2023-02-12T00:25:13;10.20;99.90
5278;DHT22;2662;51.194;6.614;2023-02-12T00:27:41;10.20;99.90
5278;DHT22;2662;51.194;6.614;2023-02-12T00:30:08;10.30;99.90
5278;DHT22;2662;51.194;6.614;2023-02-12T00:32:35;10.20;99.90
5278;DHT22;2662;51.194;6.614;2023-02-12T00:35:02;10.20;99.90
5278;DHT22;2662;51.194;6.614;2023-02-12T00:37:29;10.10;99.90
5278;DHT22;2662;51.194;6.614;2023-02-12T00:39:55;10.00;99.90
5278;DHT22;2662;51.194;6.614;2023-02-12T00:42:22;10.00;99.90
5278;DHT22;2662;51.194;6.614;2023-02-12T00:44:50;10.00;99.90
5278;DHT22;2662;51.194;6.614;2023-02-12T00:47:17;10.00;99.90
5278;DHT22;2662;51.194;6.614;2023-02-12T00:49:44;10.00;99.90
5278;DHT22;2662;51.194;6.614;2023-02-12T00:52:10;9.90;99.90
5278;DHT22;2662;51.194;6.614;2023-02-12T00:54:37;10.00;99.90
5278;DHT22;2662;51.194;6.614;2023-02-12T00:57:04;10.00;99.90
5278;DHT22;2662;51.194;6.614;2023-02-12T00:59:31;10.10;99.90
5278;DHT22;2662;51.194;6.614;2023-02-12T01:02:01;10.10;99.90
5278;DHT22;2662;51.194;6.614;2023-02-12T01:04:28;10.10;99.90
5278;DHT22;2662;51.194;6.614;2023-02-12T01:06:55;10.20;99.90
5278;DHT22;2662;51.194;6.614;2023-02-12T01:09:21;10.20;99.90
5278;DHT22;2662;51.194;6.614;2023-02-12T01:11:48;10.20;99.90
5278;DHT22;2662;51.194;6.614;2023-02-12T01:14:15;10.30;99.90
5278;DHT22;2662;51.194;6.614;2023-02-12T01:16:41;10.30;99.90
5278;DHT22;2662;51.194;6.614;2023-02-12T01:19:10;10.30;99.90
5278;DHT22;2662;51.194;6.614;2023-02-12T01:21:37;10.30;99.90
5278;DHT22;2662;51.194;6.614;2023-02-12T01:24:04;10.30;99.90
5278;DHT22;2662;51.194;6.614;2023-02-12T01:26:32;10.30;99.90
5278;DHT22;2662;51.194;6.614;2023-02-12T01:29:00;10.30;99.90
5278;DHT22;2662;51.194;6.614;2023-02-12T01:31:28;10.30;99.90
5278;DHT22;2662;51.194;6.614;2023-02-12T01:33:57;10.30;99.90
5278;DHT22;2662;51.194;6.614;2023-02-12T01:36:27;10.30;99.90
5278;DHT22;2662;51.194;6.614;2023-02-12T01:38:54;10.30;99.90
5278;DHT22;2662;51.194;6.614;2023-02-12T01:41:24;10.30;99.90
5278;DHT22;2662;51.194;6.614;2023-02-12T01:44:09;10.30;99.90
5278;DHT22;2662;51.194;6.614;2023-02-12T01:46:37;10.30;99.90
5278;DHT22;2662;51.194;6.614;2023-02-12T01:49:07;10.30;99.90
5278;DHT22;2662;51.194;6.614;2023-02-12T01:51:36;10.30;99.90
5278;DHT22;2662;51.194;6.614;2023-02-12T01:54:06;10.20;99.90
5278;DHT22;2662;51.194;6.614;2023-02-12T01:56:33;10.20;99.90
5278;DHT22;2662;51.194;6.614;2023-02-12T01:59:01;10.20;99.90
5278;DHT22;2662;51.194;6.614;2023-02-12T02:01:29;10.20;99.90
5278;DHT22;2662;51.194;6.614;2023-02-12T02:04:00;10.20;99.90
5278;DHT22;2662;51.194;6.614;2023-02-12T02:06:31;10.20;99.90
5278;DHT22;2662;51.194;6.614;2023-02-12T02:09:00;10.30;99.90
5278;DHT22;2662;51.194;6.614;2023-02-12T02:11:27;10.20;99.90
5278;DHT22;2662;51.194;6.614;2023-02-12T02:14:11;10.20;99.90
5278;DHT22;2662;51.194;6.614;2023-02-12T02:17:05;10.20;99.90
5278;DHT22;2662;51.194;6.614;2023-02-12T02:19:46;10.20;99.90
5278;DHT22;2662;51.194;6.614;2023-02-12T02:22:23;10.20;99.90
5278;DHT22;2662;51.194;6.614;2023-02-12T02:25:12;10.20;99.90
5278;DHT22;2662;51.194;6.614;2023-02-12T02:27:48;10.20;99.90
5278;DHT22;2662;51.194;6.614;2023-02-12T02:30:39;10.20;99.90
5278;DHT22;2662;51.194;6.614;2023-02-12T02:33:19;10.20;99.90
5278;DHT22;2662;51.194;6.614;2023-02-12T02:35:52;10.20;99.90
5278;DHT22;2662;51.194;6.614;2023-02-12T02:38:25;10.20;99.90
5278;DHT22;2662;51.194;6.614;2023-02-12T02:40:57;10.20;99.90
5278;DHT22;2662;51.194;6.614;2023-02-12T02:43:32;10.10;99.90
5278;DHT22;2662;51.194;6.614;2023-02-12T02:46:05;10.10;99.90
5278;DHT22;2662;51.194;6.614;2023-02-12T02:48:35;10.10;99.90
5278;DHT22;2662;51.194;6.614;2023-02-12T02:51:06;10.10;99.90
5278;DHT22;2662;51.194;6.614;2023-02-12T02:53:38;10.10;99.90
5278;DHT22;2662;51.194;6.614;2023-02-12T02:56:10;10.10;99.90
5278;DHT22;2662;51.194;6.614;2023-02-12T02:58:41;10.10;99.90
5278;DHT22;2662;51.194;6.614;2023-02-12T03:01:13;10.10;99.90
5278;DHT22;2662;51.194;6.614;2023-02-12T03:03:47;10.00;99.90
5278;DHT22;2662;51.194;6.614;2023-02-12T03:06:19;10.00;99.90
5278;DHT22;2662;51.194;6.614;2023-02-12T03:08:51;10.00;99.90
5278;DHT22;2662;51.194;6.614;2023-02-12T03:11:22;10.00;99.90
5278;DHT22;2662;51.194;6.614;2023-02-12T03:13:53;10.00;99.90
5278;DHT22;2662;51.194;6.614;2023-02-12T03:16:25;10.00;99.90
5278;DHT22;2662;51.194;6.614;2023-02-12T03:18:54;9.90;99.90
5278;DHT22;2662;51.194;6.614;2023-02-12T03:21:27;9.90;99.90
5278;DHT22;2662;51.194;6.614;2023-02-12T03:24:00;9.90;99.90
5278;DHT22;2662;51.194;6.614;2023-02-12T03:26:37;10.00;99.90
5278;DHT22;2662;51.194;6.614;2023-02-12T03:29:04;10.00;99.90
5278;DHT22;2662;51.194;6.614;2023-02-12T03:31:39;10.00;99.90
5278;DHT22;2662;51.194;6.614;2023-02-12T03:34:12;10.00;99.90
5278;DHT22;2662;51.194;6.614;2023-02-12T03:36:48;10.00;99.90
5278;DHT22;2662;51.194;6.614;2023-02-12T03:39:24;10.00;99.90
5278;DHT22;2662;51.194;6.614;2023-02-12T03:42:00;10.10;99.90
5278;DHT22;2662;51.194;6.614;2023-02-12T03:44:38;10.10;99.90
5278;DHT22;2662;51.194;6.614;2023-02-12T03:47:18;10.10;99.90
5278;DHT22;2662;51.194;6.614;2023-02-12T03:49:50;9.70;99.90
5278;DHT22;2662;51.194;6.614;2023-02-12T03:52:17;9.50;99.90
5278;DHT22;2662;51.194;6.614;2023-02-12T03:54:44;9.50;99.90
5278;DHT22;2662;51.194;6.614;2023-02-12T03:57:16;9.60;99.90
5278;DHT22;2662;51.194;6.614;2023-02-12T03:59:44;9.50;99.90
5278;DHT22;2662;51.194;6.614;2023-02-12T04:02:14;9.50;99.90
5278;DHT22;2662;51.194;6.614;2023-02-12T04:04:42;9.50;99.90
5278;DHT22;2662;51.194;6.614;2023-02-12T04:07:09;9.60;99.90
5278;DHT22;2662;51.194;6.614;2023-02-12T04:09:36;9.60;99.90
5278;DHT22;2662;51.194;6.614;2023-02-12T04:12:27;9.70;99.90
5278;DHT22;2662;51.194;6.614;2023-02-12T04:15:05;9.70;99.90
5278;DHT22;2662;51.194;6.614;2023-02-12T04:17:45;9.70;99.90
5278;DHT22;2662;51.194;6.614;2023-02-12T04:20:23;9.70;99.90
5278;DHT22;2662;51.194;6.614;2023-02-12T04:22:56;9.70;99.90
5278;DHT22;2662;51.194;6.614;2023-02-12T04:25:35;9.60;99.90
5278;DHT22;2662;51.194;6.614;2023-02-12T04:28:11;9.70;99.90
5278;DHT22;2662;51.194;6.614;2023-02-12T04:30:44;9.70;99.90
5278;DHT22;2662;51.194;6.614;2023-02-12T04:33:17;9.60;99.90
5278;DHT22;2662;51.194;6.614;2023-02-12T04:35:49;9.60;99.90
5278;DHT22;2662;51.194;6.614;2023-02-12T04:38:20;9.60;99.90
5278;DHT22;2662;51.194;6.614;2023-02-12T04:40:48;9.60;99.90
5278;DHT22;2662;51.194;6.614;2023-02-12T04:43:26;9.60;99.90
5278;DHT22;2662;51.194;6.614;2023-02-12T04:45:53;9.60;99.90
5278;DHT22;2662;51.194;6.614;2023-02-12T04:48:21;9.70;99.90
5278;DHT22;2662;51.194;6.614;2023-02-12T04:50:47;9.70;99.90
5278;DHT22;2662;51.194;6.614;2023-02-12T04:53:14;9.70;99.90
5278;DHT22;2662;51.194;6.614;2023-02-12T04:55:41;9.70;99.90
5278;DHT22;2662;51.194;6.614;2023-02-12T04:58:08;9.70;99.90
5278;DHT22;2662;51.194;6.614;2023-02-12T05:00:35;9.70;99.90
5278;DHT22;2662;51.194;6.614;2023-02-12T05:03:02;9.70;99.90
5278;DHT22;2662;51.194;6.614;2023-02-12T05:05:30;9.60;99.90
5278;DHT22;2662;51.194;6.614;2023-02-12T05:07:57;9.70;99.90
5278;DHT22;2662;51.194;6.614;2023-02-12T05:10:23;9.70;99.90
5278;DHT22;2662;51.194;6.614;2023-02-12T05:12:50;9.70;99.90
5278;DHT22;2662;51.194;6.614;2023-02-12T05:15:17;9.70;99.90
5278;DHT22;2662;51.194;6.614;2023-02-12T05:17:44;9.70;99.90
5278;DHT22;2662;51.194;6.614;2023-02-12T05:20:12;9.70;99.90
5278;DHT22;2662;51.194;6.614;2023-02-12T05:22:40;9.70;99.90
5278;DHT22;2662;51.194;6.614;2023-02-12T05:25:07;9.70;99.90
5278;DHT22;2662;51.194;6.614;2023-02-12T05:27:34;9.80;99.90
5278;DHT22;2662;51.194;6.614;2023-02-12T05:30:01;9.80;99.90
5278;DHT22;2662;51.194;6.614;2023-02-12T05:32:28;9.80;99.90
5278;DHT22;2662;51.194;6.614;2023-02-12T05:34:54;9.80;99.90
5278;DHT22;2662;51.194;6.614;2023-02-12T05:37:21;9.70;99.90
5278;DHT22;2662;51.194;6.614;2023-02-12T05:39:49;9.70;99.90
5278;DHT22;2662;51.194;6.614;2023-02-12T05:42:16;9.70;99.90
5278;DHT22;2662;51.194;6.614;2023-02-12T05:44:43;9.80;99.90
5278;DHT22;2662;51.194;6.614;2023-02-12T05:47:12;9.70;99.90
5278;DHT22;2662;51.194;6.614;2023-02-12T05:49:39;9.60;99.90
5278;DHT22;2662;51.194;6.614;2023-02-12T05:52:07;9.60;99.90
5278;DHT22;2662;51.194;6.614;2023-02-12T05:54:33;9.60;99.90
5278;DHT22;2662;51.194;6.614;2023-02-12T05:57:01;9.60;99.90
5278;DHT22;2662;51.194;6.614;2023-02-12T05:59:28;9.70;99.90
5278;DHT22;2662;51.194;6.614;2023-02-12T06:01:55;9.60;99.90
5278;DHT22;2662;51.194;6.614;2023-02-12T06:04:27;9.60;99.90
5278;DHT22;2662;51.194;6.614;2023-02-12T06:06:54;9.60;99.90
5278;DHT22;2662;51.194;6.614;2023-02-12T06:09:22;9.60;99.90
5278;DHT22;2662;51.194;6.614;2023-02-12T06:11:49;9.50;99.90
5278;DHT22;2662;51.194;6.614;2023-02-12T06:14:19;9.50;99.90
5278;DHT22;2662;51.194;6.614;2023-02-12T06:16:47;9.50;99.90
5278;DHT22;2662;51.194;6.614;2023-02-12T06:19:15;9.60;99.90
5278;DHT22;2662;51.194;6.614;2023-02-12T06:21:43;9.60;99.90
5278;DHT22;2662;51.194;6.614;2023-02-12T06:24:11;9.60;99.90
5278;DHT22;2662;51.194;6.614;2023-02-12T06:26:38;9.60;99.90
5278;DHT22;2662;51.194;6.614;2023-02-12T06:29:04;9.60;99.90
5278;DHT22;2662;51.194;6.614;2023-02-12T06:31:34;9.60;99.90
5278;DHT22;2662;51.194;6.614;2023-02-12T06:34:03;9.50;99.90
5278;DHT22;2662;51.194;6.614;2023-02-12T06:36:31;9.50;99.90
5278;DHT22;2662;51.194;6.614;2023-02-12T06:38:59;9.40;99.90
5278;DHT22;2662;51.194;6.614;2023-02-12T06:41:26;9.40;99.90
5278;DHT22;2662;51.194;6.614;2023-02-12T06:43:53;9.40;99.90
5278;DHT22;2662;51.194;6.614;2023-02-12T06:46:20;9.40;99.90
5278;DHT22;2662;51.194;6.614;2023-02-12T06:48:51;9.50;99.90
5278;DHT22;2662;51.194;6.614;2023-02-12T06:51:18;9.50;99.90
5278;DHT22;2662;51.194;6.614;2023-02-12T06:53:46;9.50;99.90
5278;DHT22;2662;51.194;6.614;2023-02-12T06:56:13;9.40;99.90
5278;DHT22;2662;51.194;6.614;2023-02-12T06:58:42;9.20;99.90
5278;DHT22;2662;51.194;6.614;2023-02-12T07:01:11;9.20;99.90
5278;DHT22;2662;51.194;6.614;2023-02-12T07:03:39;9.20;99.90
5278;DHT22;2662;51.194;6.614;2023-02-12T07:06:08;9.30;99.90
5278;DHT22;2662;51.194;6.614;2023-02-12T07:08:35;9.40;99.90
5278;DHT22;2662;51.194;6.614;2023-02-12T07:11:02;9.50;99.90
5278;DHT22;2662;51.194;6.614;2023-02-12T07:13:29;9.50;99.90
5278;DHT22;2662;51.194;6.614;2023-02-12T07:16:02;9.50;99.90
5278;DHT22;2662;51.194;6.614;2023-02-12T07:18:29;9.50;99.90
5278;DHT22;2662;51.194;6.614;2023-02-12T07:20:55;9.50;99.90
5278;DHT22;2662;51.194;6.614;2023-02-12T07:23:23;9.50;99.90
5278;DHT22;2662;51.194;6.614;2023-02-12T07:25:54;9.50;99.90
5278;DHT22;2662;51.194;6.614;2023-02-12T07:28:20;9.50;99.90
5278;DHT22;2662;51.194;6.614;2023-02-12T07:30:47;9.50;99.90
5278;DHT22;2662;51.194;6.614;2023-02-12T07:33:14;9.50;99.90
5278;DHT22;2662;51.194;6.614;2023-02-12T07:35:41;9.50;99.90
5278;DHT22;2662;51.194;6.614;2023-02-12T07:38:07;9.50;99.90
5278;DHT22;2662;51.194;6.614;2023-02-12T07:40:35;9.40;99.90
5278;DHT22;2662;51.194;6.614;2023-02-12T07:43:02;9.40;99.90
5278;DHT22;2662;51.194;6.614;2023-02-12T07:45:29;9.40;99.90
5278;DHT22;2662;51.194;6.614;2023-02-12T07:47:56;9.40;99.90
5278;DHT22;2662;51.194;6.614;2023-02-12T07:50:22;9.40;99.90
5278;DHT22;2662;51.194;6.614;2023-02-12T07:52:49;9.50;99.90
5278;DHT22;2662;51.194;6.614;2023-02-12T07:55:16;9.50;99.90
5278;DHT22;2662;51.194;6.614;2023-02-12T07:57:44;9.60;99.90
5278;DHT22;2662;51.194;6.614;2023-02-12T08:00:12;9.60;99.90
5278;DHT22;2662;51.194;6.614;2023-02-12T08:02:39;9.50;99.90
5278;DHT22;2662;51.194;6.614;2023-02-12T08:05:06;9.50;99.90
5278;DHT22;2662;51.194;6.614;2023-02-12T08:07:33;9.50;99.90
5278;DHT22;2662;51.194;6.614;2023-02-12T08:09:59;9.50;99.90
5278;DHT22;2662;51.194;6.614;2023-02-12T08:12:26;9.50;99.90
5278;DHT22;2662;51.194;6.614;2023-02-12T08:14:54;9.60;99.90
5278;DHT22;2662;51.194;6.614;2023-02-12T08:17:21;9.50;99.90
5278;DHT22;2662;51.194;6.614;2023-02-12T08:19:47;9.60;99.90
5278;DHT22;2662;51.194;6.614;2023-02-12T08:22:14;9.70;99.90
5278;DHT22;2662;51.194;6.614;2023-02-12T08:24:41;9.70;99.90
5278;DHT22;2662;51.194;6.614;2023-02-12T08:27:08;9.70;99.90
5278;DHT22;2662;51.194;6.614;2023-02-12T08:29:35;9.70;99.90
5278;DHT22;2662;51.194;6.614;2023-02-12T08:32:03;9.70;99.90
5278;DHT22;2662;51.194;6.614;2023-02-12T08:34:35;9.80;99.90
5278;DHT22;2662;51.194;6.614;2023-02-12T08:37:03;9.90;99.90
5278;DHT22;2662;51.194;6.614;2023-02-12T08:39:30;10.00;99.90
5278;DHT22;2662;51.194;6.614;2023-02-12T08:41:58;10.10;99.90
5278;DHT22;2662;51.194;6.614;2023-02-12T08:44:25;10.10;99.90
5278;DHT22;2662;51.194;6.614;2023-02-12T08:46:52;10.20;99.90
5278;DHT22;2662;51.194;6.614;2023-02-12T08:49:22;10.20;99.90
5278;DHT22;2662;51.194;6.614;2023-02-12T08:51:50;10.30;99.90
5278;DHT22;2662;51.194;6.614;2023-02-12T08:54:19;10.30;99.90
5278;DHT22;2662;51.194;6.614;2023-02-12T08:56:45;10.30;99.90
5278;DHT22;2662;51.194;6.614;2023-02-12T08:59:13;10.40;99.90
5278;DHT22;2662;51.194;6.614;2023-02-12T09:01:40;10.50;99.90
5278;DHT22;2662;51.194;6.614;2023-02-12T09:04:11;10.70;99.90
5278;DHT22;2662;51.194;6.614;2023-02-12T09:06:40;10.80;99.90
5278;DHT22;2662;51.194;6.614;2023-02-12T09:09:07;10.90;99.90
5278;DHT22;2662;51.194;6.614;2023-02-12T09:11:34;11.00;99.90
5278;DHT22;2662;51.194;6.614;2023-02-12T09:14:04;11.10;99.90
5278;DHT22;2662;51.194;6.614;2023-02-12T09:16:33;11.10;99.90
5278;DHT22;2662;51.194;6.614;2023-02-12T09:19:00;11.20;99.90
5278;DHT22;2662;51.194;6.614;2023-02-12T09:21:27;11.40;99.90
5278;DHT22;2662;51.194;6.614;2023-02-12T09:23:55;11.50;99.90
5278;DHT22;2662;51.194;6.614;2023-02-12T09:26:23;11.60;99.90
5278;DHT22;2662;51.194;6.614;2023-02-12T09:28:52;11.80;99.90
5278;DHT22;2662;51.194;6.614;2023-02-12T09:31:21;11.80;99.90
5278;DHT22;2662;51.194;6.614;2023-02-12T09:33:51;12.00;99.90
5278;DHT22;2662;51.194;6.614;2023-02-12T09:36:18;12.20;99.90
5278;DHT22;2662;51.194;6.614;2023-02-12T09:38:45;12.30;99.90
5278;DHT22;2662;51.194;6.614;2023-02-12T09:44:14;12.60;99.90
5278;DHT22;2662;51.194;6.614;2023-02-12T09:46:47;12.60;99.90
5278;DHT22;2662;51.194;6.614;2023-02-12T09:49:22;12.60;99.90
5278;DHT22;2662;51.194;6.614;2023-02-12T09:51:52;12.70;99.90
5278;DHT22;2662;51.194;6.614;2023-02-12T09:54:21;12.70;99.90
5278;DHT22;2662;51.194;6.614;2023-02-12T09:56:52;12.70;99.90
5278;DHT22;2662;51.194;6.614;2023-02-12T09:59:28;12.70;99.90
5278;DHT22;2662;51.194;6.614;2023-02-12T10:01:57;12.70;99.90
5278;DHT22;2662;51.194;6.614;2023-02-12T10:04:25;12.90;99.90
5278;DHT22;2662;51.194;6.614;2023-02-12T10:07:00;12.90;99.90
5278;DHT22;2662;51.194;6.614;2023-02-12T10:09:56;12.90;99.90
5278;DHT22;2662;51.194;6.614;2023-02-12T10:12:32;12.90;99.90
5278;DHT22;2662;51.194;6.614;2023-02-12T10:15:13;12.80;99.90
5278;DHT22;2662;51.194;6.614;2023-02-12T10:17:43;12.90;99.90
5278;DHT22;2662;51.194;6.614;2023-02-12T10:20:51;13.00;99.90
5278;DHT22;2662;51.194;6.614;2023-02-12T10:23:37;13.00;99.90
5278;DHT22;2662;51.194;6.614;2023-02-12T10:26:13;13.00;99.90
5278;DHT22;2662;51.194;6.614;2023-02-12T10:28:43;12.90;99.90
5278;DHT22;2662;51.194;6.614;2023-02-12T10:31:15;12.80;99.90
5278;DHT22;2662;51.194;6.614;2023-02-12T10:33:46;12.90;99.90
5278;DHT22;2662;51.194;6.614;2023-02-12T10:36:19;12.90;99.90
5278;DHT22;2662;51.194;6.614;2023-02-12T10:38:52;12.90;99.90
5278;DHT22;2662;51.194;6.614;2023-02-12T10:41:22;13.00;99.90
5278;DHT22;2662;51.194;6.614;2023-02-12T10:43:51;13.00;99.90
5278;DHT22;2662;51.194;6.614;2023-02-12T10:46:18;13.00;99.90
5278;DHT22;2662;51.194;6.614;2023-02-12T10:48:48;13.00;99.90
5278;DHT22;2662;51.194;6.614;2023-02-12T10:51:29;13.00;99.90
5278;DHT22;2662;51.194;6.614;2023-02-12T10:54:35;13.00;99.90
5278;DHT22;2662;51.194;6.614;2023-02-12T10:57:10;13.10;99.90
5278;DHT22;2662;51.194;6.614;2023-02-12T10:59:40;13.00;99.90
5278;DHT22;2662;51.194;6.614;2023-02-12T11:02:22;13.00;99.90
5278;DHT22;2662;51.194;6.614;2023-02-12T11:04:50;13.10;99.90
5278;DHT22;2662;51.194;6.614;2023-02-12T11:07:17;13.20;99.90
5278;DHT22;2662;51.194;6.614;2023-02-12T11:09:45;13.20;99.90
5278;DHT22;2662;51.194;6.614;2023-02-12T11:12:22;13.20;99.90
5278;DHT22;2662;51.194;6.614;2023-02-12T11:14:53;13.30;99.90
5278;DHT22;2662;51.194;6.614;2023-02-12T11:17:24;13.40;99.90
5278;DHT22;2662;51.194;6.614;2023-02-12T11:20:18;13.30;99.90
5278;DHT22;2662;51.194;6.614;2023-02-12T11:22:50;13.40;99.90
5278;DHT22;2662;51.194;6.614;2023-02-12T11:25:18;13.50;99.90
5278;DHT22;2662;51.194;6.614;2023-02-12T11:27:58;13.60;99.90
5278;DHT22;2662;51.194;6.614;2023-02-12T11:30:27;13.60;99.90
5278;DHT22;2662;51.194;6.614;2023-02-12T11:32:54;13.40;99.90
5278;DHT22;2662;51.194;6.614;2023-02-12T11:35:21;13.60;99.90
5278;DHT22;2662;51.194;6.614;2023-02-12T11:37:54;13.70;99.90
5278;DHT22;2662;51.194;6.614;2023-02-12T11:40:24;13.50;99.90
5278;DHT22;2662;51.194;6.614;2023-02-12T11:42:53;13.50;99.90
5278;DHT22;2662;51.194;6.614;2023-02-12T11:45:28;13.60;99.90
5278;DHT22;2662;51.194;6.614;2023-02-12T11:47:55;13.60;99.90
5278;DHT22;2662;51.194;6.614;2023-02-12T11:50:25;13.60;99.90
5278;DHT22;2662;51.194;6.614;2023-02-12T11:52:55;13.70;99.90
5278;DHT22;2662;51.194;6.614;2023-02-12T11:55:24;13.80;99.90
5278;DHT22;2662;51.194;6.614;2023-02-12T11:57:53;14.00;99.90
5278;DHT22;2662;51.194;6.614;2023-02-12T12:00:24;14.00;99.90
5278;DHT22;2662;51.194;6.614;2023-02-12T12:03:00;14.00;99.90
5278;DHT22;2662;51.194;6.614;2023-02-12T12:05:35;14.10;99.90
5278;DHT22;2662;51.194;6.614;2023-02-12T12:08:05;14.00;99.90
5278;DHT22;2662;51.194;6.614;2023-02-12T12:10:35;13.90;99.90
5278;DHT22;2662;51.194;6.614;2023-02-12T12:13:10;13.90;99.90
5278;DHT22;2662;51.194;6.614;2023-02-12T12:15:43;14.00;99.90
5278;DHT22;2662;51.194;6.614;2023-02-12T12:18:36;14.10;99.90
5278;DHT22;2662;51.194;6.614;2023-02-12T12:21:27;14.20;99.90
5278;DHT22;2662;51.194;6.614;2023-02-12T12:23:58;14.20;99.90
5278;DHT22;2662;51.194;6.614;2023-02-12T12:26:27;14.30;99.90
5278;DHT22;2662;51.194;6.614;2023-02-12T12:29:00;14.40;99.90
5278;DHT22;2662;51.194;6.614;2023-02-12T12:31:32;14.50;99.90
5278;DHT22;2662;51.194;6.614;2023-02-12T12:34:06;14.30;99.90
5278;DHT22;2662;51.194;6.614;2023-02-12T12:39:29;14.30;99.90
5278;DHT22;2662;51.194;6.614;2023-02-12T12:42:18;14.20;99.90
5278;DHT22;2662;51.194;6.614;2023-02-12T12:44:58;13.90;99.90
5278;DHT22;2662;51.194;6.614;2023-02-12T12:47:38;13.90;99.90
5278;DHT22;2662;51.194;6.614;2023-02-12T12:50:28;14.00;99.90
5278;DHT22;2662;51.194;6.614;2023-02-12T12:53:20;14.00;99.90
5278;DHT22;2662;51.194;6.614;2023-02-12T12:56:06;13.90;99.90
5278;DHT22;2662;51.194;6.614;2023-02-12T12:58:46;14.00;99.90
5278;DHT22;2662;51.194;6.614;2023-02-12T13:04:31;13.90;99.90
5278;DHT22;2662;51.194;6.614;2023-02-12T13:07:15;14.00;99.90
5278;DHT22;2662;51.194;6.614;2023-02-12T13:10:01;13.90;99.90
5278;DHT22;2662;51.194;6.614;2023-02-12T13:12:48;13.90;99.90
5278;DHT22;2662;51.194;6.614;2023-02-12T13:15:28;13.80;99.90
5278;DHT22;2662;51.194;6.614;2023-02-12T13:18:05;13.90;99.90
5278;DHT22;2662;51.194;6.614;2023-02-12T13:20:41;13.40;99.90
5278;DHT22;2662;51.194;6.614;2023-02-12T13:23:17;13.40;99.90
5278;DHT22;2662;51.194;6.614;2023-02-12T13:25:52;13.20;99.90
5278;DHT22;2662;51.194;6.614;2023-02-12T13:28:27;13.10;99.90
5278;DHT22;2662;51.194;6.614;2023-02-12T13:30:56;13.20;99.90
5278;DHT22;2662;51.194;6.614;2023-02-12T13:33:26;13.20;99.90
5278;DHT22;2662;51.194;6.614;2023-02-12T13:35:57;13.30;99.90
5278;DHT22;2662;51.194;6.614;2023-02-12T13:38:30;13.20;99.90
5278;DHT22;2662;51.194;6.614;2023-02-12T13:41:01;12.90;99.90
5278;DHT22;2662;51.194;6.614;2023-02-12T13:43:51;12.80;99.90
5278;DHT22;2662;51.194;6.614;2023-02-12T13:46:27;12.60;99.90
5278;DHT22;2662;51.194;6.614;2023-02-12T13:49:02;12.40;99.90
5278;DHT22;2662;51.194;6.614;2023-02-12T13:51:39;12.50;99.90
5278;DHT22;2662;51.194;6.614;2023-02-12T13:54:16;12.40;99.90
5278;DHT22;2662;51.194;6.614;2023-02-12T13:56:47;12.60;99.90
5278;DHT22;2662;51.194;6.614;2023-02-12T13:59:37;12.90;99.90
5278;DHT22;2662;51.194;6.614;2023-02-12T14:02:23;13.10;99.90
5278;DHT22;2662;51.194;6.614;2023-02-12T14:04:54;13.20;99.90
5278;DHT22;2662;51.194;6.614;2023-02-12T14:07:22;12.90;99.90
5278;DHT22;2662;51.194;6.614;2023-02-12T14:10:03;12.70;99.90
5278;DHT22;2662;51.194;6.614;2023-02-12T14:12:33;12.70;99.90
5278;DHT22;2662;51.194;6.614;2023-02-12T14:15:04;12.70;99.90
5278;DHT22;2662;51.194;6.614;2023-02-12T14:17:52;12.70;99.90
5278;DHT22;2662;51.194;6.614;2023-02-12T14:20:22;12.80;99.90
5278;DHT22;2662;51.194;6.614;2023-02-12T14:25:40;13.00;99.90
5278;DHT22;2662;51.194;6.614;2023-02-12T14:28:21;13.10;99.90
5278;DHT22;2662;51.194;6.614;2023-02-12T14:33:51;12.80;99.90
5278;DHT22;2662;51.194;6.614;2023-02-12T14:36:35;12.80;99.90
5278;DHT22;2662;51.194;6.614;2023-02-12T14:39:26;12.40;99.90
5278;DHT22;2662;51.194;6.614;2023-02-12T14:42:40;12.20;99.90
5278;DHT22;2662;51.194;6.614;2023-02-12T14:44:45;11.90;99.90
5278;DHT22;2662;51.194;6.614;2023-02-12T14:50:00;11.90;99.90
5278;DHT22;2662;51.194;6.614;2023-02-12T14:52:29;11.80;99.90
5278;DHT22;2662;51.194;6.614;2023-02-12T14:54:59;11.90;99.90
5278;DHT22;2662;51.194;6.614;2023-02-12T14:57:30;11.90;99.90
5278;DHT22;2662;51.194;6.614;2023-02-12T15:00:01;12.00;99.90
5278;DHT22;2662;51.194;6.614;2023-02-12T15:02:33;12.10;99.90
5278;DHT22;2662;51.194;6.614;2023-02-12T15:05:06;12.20;99.90
5278;DHT22;2662;51.194;6.614;2023-02-12T15:07:42;12.20;99.90
5278;DHT22;2662;51.194;6.614;2023-02-12T15:10:15;12.20;99.90
5278;DHT22;2662;51.194;6.614;2023-02-12T15:12:46;12.30;99.90
5278;DHT22;2662;51.194;6.614;2023-02-12T15:15:19;12.30;99.90
5278;DHT22;2662;51.194;6.614;2023-02-12T15:17:59;12.30;99.90
5278;DHT22;2662;51.194;6.614;2023-02-12T15:20:34;12.30;99.90
5278;DHT22;2662;51.194;6.614;2023-02-12T15:23:29;12.30;99.90
5278;DHT22;2662;51.194;6.614;2023-02-12T15:25:58;12.30;99.90
5278;DHT22;2662;51.194;6.614;2023-02-12T15:28:29;12.30;99.90
5278;DHT22;2662;51.194;6.614;2023-02-12T15:31:00;12.30;99.90
5278;DHT22;2662;51.194;6.614;2023-02-12T15:33:30;12.30;99.90
5278;DHT22;2662;51.194;6.614;2023-02-12T15:35:57;12.30;99.90
5278;DHT22;2662;51.194;6.614;2023-02-12T15:38:30;12.20;99.90
5278;DHT22;2662;51.194;6.614;2023-02-12T15:40:59;12.20;99.90
5278;DHT22;2662;51.194;6.614;2023-02-12T15:43:28;12.20;99.90
5278;DHT22;2662;51.194;6.614;2023-02-12T15:46:00;12.20;99.90
5278;DHT22;2662;51.194;6.614;2023-02-12T15:48:29;12.10;99.90
5278;DHT22;2662;51.194;6.614;2023-02-12T15:51:01;12.10;99.90
5278;DHT22;2662;51.194;6.614;2023-02-12T15:53:29;12.10;99.90
5278;DHT22;2662;51.194;6.614;2023-02-12T15:55:58;12.10;99.90
5278;DHT22;2662;51.194;6.614;2023-02-12T15:58:28;12.20;99.90
5278;DHT22;2662;51.194;6.614;2023-02-12T16:01:00;12.10;99.90
5278;DHT22;2662;51.194;6.614;2023-02-12T16:03:29;12.10;99.90
5278;DHT22;2662;51.194;6.614;2023-02-12T16:06:01;12.10;99.90
5278;DHT22;2662;51.194;6.614;2023-02-12T16:08:28;12.20;99.90
5278;DHT22;2662;51.194;6.614;2023-02-12T16:10:57;12.10;99.90
5278;DHT22;2662;51.194;6.614;2023-02-12T16:13:28;12.10;99.90
5278;DHT22;2662;51.194;6.614;2023-02-12T16:16:04;12.00;99.90
5278;DHT22;2662;51.194;6.614;2023-02-12T16:18:32;12.00;99.90
5278;DHT22;2662;51.194;6.614;2023-02-12T16:21:04;12.00;99.90
5278;DHT22;2662;51.194;6.614;2023-02-12T16:23:32;12.00;99.90
5278;DHT22;2662;51.194;6.614;2023-02-12T16:26:00;11.90;99.90
5278;DHT22;2662;51.194;6.614;2023-02-12T16:28:29;11.90;99.90
5278;DHT22;2662;51.194;6.614;2023-02-12T16:31:07;11.90;99.90
5278;DHT22;2662;51.194;6.614;2023-02-12T16:33:41;11.90;99.90
5278;DHT22;2662;51.194;6.614;2023-02-12T16:36:13;11.80;99.90
5278;DHT22;2662;51.194;6.614;2023-02-12T16:38:41;11.80;99.90
5278;DHT22;2662;51.194;6.614;2023-02-12T16:41:21;11.90;99.90
5278;DHT22;2662;51.194;6.614;2023-02-12T16:44:22;11.90;99.90
5278;DHT22;2662;51.194;6.614;2023-02-12T16:46:53;11.80;99.90
5278;DHT22;2662;51.194;6.614;2023-02-12T16:49:22;11.80;99.90
5278;DHT22;2662;51.194;6.614;2023-02-12T16:51:50;11.80;99.90